createdAt,value
2023-03-06T00:02:30.077Z,1.09
2023-03-06T00:05:31.632Z,1.08
2023-03-06T00:08:33.194Z,1.06
2023-03-06T00:11:34.676Z,1.05
2023-03-06T00:14:36.325Z,1.06
2023-03-06T00:17:37.839Z,1.03
2023-03-06T00:20:39.969Z,1.02
2023-03-06T00:23:41.423Z,0.99
2023-03-06T00:26:43.261Z,1.07
2023-03-06T00:29:44.823Z,1.11
2023-03-06T00:32:46.304Z,1.14
2023-03-06T00:35:47.806Z,1.12
2023-03-06T00:38:49.313Z,1.13
2023-03-06T00:41:50.790Z,1.13
2023-03-06T00:44:52.353Z,1.12
2023-03-06T00:47:53.899Z,0.99
2023-03-06T00:50:55.402Z,1.00
2023-03-06T00:53:56.944Z,0.94
2023-03-06T00:56:58.416Z,0.79
2023-03-06T00:59:59.881Z,0.84
2023-03-06T01:03:01.350Z,0.95
2023-03-06T01:06:02.807Z,0.96
2023-03-06T01:09:04.559Z,0.94
2023-03-06T01:12:06.278Z,0.90
2023-03-06T01:15:08.232Z,0.92
2023-03-06T01:18:09.714Z,1.03
2023-03-06T01:21:11.213Z,0.95
2023-03-06T01:24:12.753Z,0.74
2023-03-06T01:27:14.508Z,0.73
2023-03-06T01:30:16.078Z,0.63
2023-03-06T01:33:17.577Z,0.74
2023-03-06T01:36:19.072Z,0.86
2023-03-06T01:39:20.560Z,0.86
2023-03-06T01:42:22.100Z,0.89
2023-03-06T01:45:23.446Z,0.86
2023-03-06T01:48:25.032Z,0.85
2023-03-06T01:51:30.624Z,0.86
2023-03-06T01:54:37.493Z,0.83
2023-03-06T01:57:42.283Z,0.84
2023-03-06T02:00:43.755Z,0.81
2023-03-06T02:03:47.286Z,0.68
2023-03-06T02:06:48.838Z,0.71
2023-03-06T02:09:50.297Z,0.72
2023-03-06T02:12:51.808Z,0.68
2023-03-06T02:15:53.279Z,0.79
2023-03-06T02:18:54.852Z,0.82
2023-03-06T02:21:56.346Z,0.77
2023-03-06T02:25:05.203Z,0.75
2023-03-06T02:28:08.497Z,0.72
2023-03-06T02:31:22.052Z,0.72
2023-03-06T02:34:23.405Z,0.68
2023-03-06T02:37:25.450Z,0.68
2023-03-06T02:40:27.002Z,0.68
2023-03-06T02:43:29.228Z,0.78
2023-03-06T02:46:30.750Z,0.74
2023-03-06T02:49:32.267Z,0.72
2023-03-06T02:52:33.799Z,0.77
2023-03-06T02:55:35.357Z,0.69
2023-03-06T02:58:36.919Z,0.81
2023-03-06T03:01:38.440Z,0.84
2023-03-06T03:04:39.997Z,0.78
2023-03-06T03:07:41.548Z,0.83
2023-03-06T03:10:43.158Z,0.52
2023-03-06T03:13:44.651Z,0.41
2023-03-06T03:16:46.251Z,0.50
2023-03-06T03:19:47.742Z,0.50
2023-03-06T03:22:50.125Z,0.50
2023-03-06T03:25:51.639Z,0.46
2023-03-06T03:28:53.131Z,0.53
2023-03-06T03:31:54.628Z,0.50
2023-03-06T03:34:56.169Z,0.52
2023-03-06T03:37:57.662Z,0.49
2023-03-06T03:41:00.865Z,0.44
2023-03-06T03:44:02.372Z,0.46
2023-03-06T03:47:03.981Z,0.37
2023-03-06T03:50:06.100Z,0.41
2023-03-06T03:53:07.554Z,0.42
2023-03-06T03:56:09.031Z,0.71
2023-03-06T03:59:10.733Z,0.82
2023-03-06T04:02:12.281Z,0.82
2023-03-06T04:05:14.882Z,0.77
2023-03-06T04:08:16.420Z,0.73
2023-03-06T04:11:17.903Z,0.72
2023-03-06T04:14:19.380Z,0.73
2023-03-06T04:17:20.927Z,0.67
2023-03-06T04:20:22.380Z,0.54
2023-03-06T04:23:27.819Z,0.56
2023-03-06T04:26:29.350Z,0.53
2023-03-06T04:29:30.837Z,0.62
2023-03-06T04:32:32.345Z,0.57
2023-03-06T04:35:33.899Z,0.56
2023-03-06T04:38:35.427Z,0.60
2023-03-06T04:41:36.983Z,0.60
2023-03-06T04:44:38.722Z,0.61
2023-03-06T04:47:40.257Z,0.57
2023-03-06T04:50:41.846Z,0.61
2023-03-06T04:53:43.332Z,0.54
2023-03-06T04:56:45.042Z,0.57
2023-03-06T04:59:46.507Z,0.60
2023-03-06T05:02:48.026Z,0.64
2023-03-06T05:05:49.522Z,0.61
2023-03-06T05:08:51.001Z,0.68
2023-03-06T05:11:52.527Z,0.70
2023-03-06T05:14:54.073Z,0.58
2023-03-06T05:17:56.492Z,0.52
2023-03-06T05:20:59.880Z,0.59
2023-03-06T05:24:01.408Z,0.62
2023-03-06T05:27:02.925Z,0.61
2023-03-06T05:30:04.775Z,0.65
2023-03-06T05:33:06.253Z,0.61
2023-03-06T05:36:08.858Z,0.66
2023-03-06T05:39:10.351Z,0.56
2023-03-06T05:42:11.878Z,0.46
2023-03-06T05:45:13.385Z,0.56
2023-03-06T05:48:14.890Z,0.58
2023-03-06T05:51:16.369Z,0.59
2023-03-06T05:54:17.871Z,0.61
2023-03-06T05:57:20.319Z,0.58
2023-03-06T06:00:22.384Z,0.62
2023-03-06T06:03:23.895Z,0.63
2023-03-06T06:06:25.384Z,0.56
2023-03-06T06:09:26.966Z,0.47
2023-03-06T06:12:28.473Z,0.45
2023-03-06T06:15:29.977Z,0.45
2023-03-06T06:18:31.424Z,0.41
2023-03-06T06:21:32.892Z,0.45
2023-03-06T06:24:34.405Z,0.48
2023-03-06T06:27:35.953Z,0.46
2023-03-06T06:30:37.449Z,0.40
2023-03-06T06:33:39.709Z,0.39
2023-03-06T06:36:41.370Z,0.44
2023-03-06T06:39:42.858Z,0.46
2023-03-06T06:42:44.628Z,0.47
2023-03-06T06:45:46.406Z,0.43
2023-03-06T06:48:54.565Z,0.41
2023-03-06T06:51:56.057Z,0.46
2023-03-06T06:54:57.733Z,0.49
2023-03-06T06:57:59.254Z,0.43
2023-03-06T07:01:07.702Z,0.50
2023-03-06T07:04:12.194Z,0.56
2023-03-06T07:07:13.748Z,0.45
2023-03-06T07:10:15.872Z,0.58
2023-03-06T07:13:17.374Z,0.53
2023-03-06T07:16:19.013Z,0.59
2023-03-06T07:19:20.529Z,0.61
2023-03-06T07:22:22.065Z,0.66
2023-03-06T07:25:23.625Z,0.63
2023-03-06T07:28:25.126Z,0.69
2023-03-06T07:31:26.910Z,0.68
2023-03-06T07:34:28.572Z,0.65
2023-03-06T07:37:30.074Z,0.67
2023-03-06T07:40:31.557Z,0.68
2023-03-06T07:43:33.043Z,0.74
2023-03-06T07:46:34.536Z,0.77
2023-03-06T07:49:36.069Z,0.87
2023-03-06T07:52:37.589Z,0.98
2023-03-06T07:55:40.370Z,1.19
2023-03-06T07:58:43.422Z,1.42
2023-03-06T08:01:45.061Z,1.37
2023-03-06T08:04:52.286Z,1.43
2023-03-06T08:07:53.770Z,1.53
2023-03-06T08:10:55.250Z,1.40
2023-03-06T08:13:57.208Z,1.58
2023-03-06T08:16:58.728Z,1.67
2023-03-06T08:20:00.208Z,2.07
2023-03-06T08:23:01.706Z,2.19
2023-03-06T08:26:05.781Z,2.48
2023-03-06T08:29:08.027Z,2.44
2023-03-06T08:32:11.620Z,2.61
2023-03-06T08:35:13.109Z,2.75
2023-03-06T08:38:14.669Z,2.78
2023-03-06T08:41:16.192Z,2.71
2023-03-06T08:44:17.825Z,2.73
2023-03-06T08:47:19.334Z,2.71
2023-03-06T08:50:20.804Z,2.71
2023-03-06T08:53:30.434Z,2.89
2023-03-06T08:56:38.267Z,2.84
2023-03-06T08:59:39.825Z,2.97
2023-03-06T09:02:41.400Z,3.10
2023-03-06T09:05:43.018Z,3.15
2023-03-06T09:08:44.739Z,3.03
2023-03-06T09:11:46.318Z,3.08
2023-03-06T09:14:47.803Z,3.05
2023-03-06T09:17:49.454Z,3.04
2023-03-06T09:20:50.990Z,3.16
2023-03-06T09:23:52.518Z,3.13
2023-03-06T09:26:54.036Z,3.07
2023-03-06T09:29:55.915Z,3.20
2023-03-06T09:32:57.405Z,3.14
2023-03-06T09:35:58.915Z,3.13
2023-03-06T09:39:00.517Z,3.10
2023-03-06T09:42:02.005Z,3.28
2023-03-06T09:45:03.715Z,3.31
2023-03-06T09:48:05.338Z,3.39
2023-03-06T09:51:15.233Z,3.26
2023-03-06T09:54:16.794Z,3.35
2023-03-06T09:57:38.197Z,3.14
2023-03-06T10:00:55.818Z,3.10
2023-03-06T10:04:11.608Z,3.13
2023-03-06T10:07:22.663Z,3.18
2023-03-06T10:10:32.828Z,3.11
2023-03-06T10:13:46.972Z,2.96
2023-03-06T10:16:48.451Z,2.98
2023-03-06T10:19:49.964Z,2.95
2023-03-06T10:23:03.151Z,3.18
2023-03-06T10:26:17.044Z,2.96
2023-03-06T10:29:47.552Z,3.25
2023-03-06T10:33:27.223Z,3.37
2023-03-06T10:36:29.062Z,3.30
2023-03-06T10:39:30.655Z,3.38
2023-03-06T10:42:32.188Z,3.25
2023-03-06T10:45:47.373Z,3.32
2023-03-06T10:48:57.938Z,3.21
2023-03-06T10:52:09.410Z,3.39
2023-03-06T10:55:24.514Z,3.55
2023-03-06T10:58:30.706Z,3.58
2023-03-06T11:01:32.217Z,3.54
2023-03-06T11:04:34.657Z,3.63
2023-03-06T11:07:36.430Z,3.86
2023-03-06T11:10:38.004Z,3.99
2023-03-06T11:13:40.941Z,3.76
2023-03-06T11:16:52.624Z,3.86
2023-03-06T11:20:17.131Z,3.83
2023-03-06T11:23:29.484Z,3.92
2023-03-06T11:26:37.234Z,3.71
2023-03-06T11:29:44.897Z,3.75
2023-03-06T11:32:50.351Z,3.75
2023-03-06T11:36:09.634Z,3.69
2023-03-06T11:39:19.535Z,3.47
2023-03-06T11:42:23.490Z,3.74
2023-03-06T11:45:26.624Z,3.76
2023-03-06T11:48:32.344Z,3.61
2023-03-06T11:51:35.668Z,3.64
2023-03-06T11:54:37.153Z,3.54
2023-03-06T11:57:53.330Z,3.77
2023-03-06T12:01:22.097Z,3.71
2023-03-06T12:04:47.766Z,3.93
2023-03-06T12:08:03.454Z,3.86
2023-03-06T12:14:39.578Z,3.70
2023-03-06T12:17:46.684Z,3.57
2023-03-06T12:20:59.295Z,3.85
2023-03-06T12:24:07.527Z,3.84
2023-03-06T12:27:34.910Z,3.95
2023-03-06T12:30:43.101Z,3.60
2023-03-06T12:34:12.571Z,3.83
2023-03-06T12:37:26.074Z,3.62
2023-03-06T12:40:43.282Z,3.69
2023-03-06T12:43:48.681Z,3.77
2023-03-06T12:46:54.352Z,3.61
2023-03-06T12:50:04.794Z,3.71
2023-03-06T12:53:08.270Z,3.83
2023-03-06T12:56:09.763Z,3.73
2023-03-06T12:59:37.087Z,3.64
2023-03-06T13:03:12.358Z,3.73
2023-03-06T13:06:39.226Z,3.72
2023-03-06T13:10:17.476Z,3.95
2023-03-06T13:13:41.304Z,3.84
2023-03-06T13:16:42.801Z,3.75
2023-03-06T13:19:44.334Z,3.68
2023-03-06T13:22:46.606Z,3.59
2023-03-06T13:25:49.294Z,3.35
2023-03-06T13:28:51.801Z,3.51
2023-03-06T13:31:53.149Z,3.33
2023-03-06T13:34:54.619Z,3.35
2023-03-06T13:37:56.728Z,3.15
2023-03-06T13:41:22.947Z,2.99
2023-03-06T13:44:24.481Z,2.74
2023-03-06T13:47:39.766Z,2.65
2023-03-06T13:50:50.525Z,2.48
2023-03-06T13:54:30.505Z,2.44
2023-03-06T13:57:49.905Z,2.47
2023-03-06T14:00:54.704Z,2.45
2023-03-06T14:04:02.343Z,2.21
2023-03-06T14:07:11.834Z,2.26
2023-03-06T14:10:13.204Z,2.39
2023-03-06T14:13:24.281Z,2.16
2023-03-06T14:16:40.596Z,2.38
2023-03-06T14:19:50.311Z,2.38
2023-03-06T14:22:51.790Z,2.58
2023-03-06T14:26:00.857Z,2.42
2023-03-06T14:29:02.585Z,2.60
2023-03-06T14:32:08.512Z,2.19
2023-03-06T14:35:34.448Z,2.26
2023-03-06T14:38:38.024Z,2.34
2023-03-06T14:41:39.519Z,2.50
2023-03-06T14:44:41.067Z,2.72
2023-03-06T14:47:43.039Z,2.69
2023-03-06T14:50:52.551Z,2.67
2023-03-06T14:53:54.166Z,2.51
2023-03-06T14:57:02.047Z,2.46
2023-03-06T15:00:04.618Z,2.73
2023-03-06T15:03:07.641Z,2.96
2023-03-06T15:06:11.960Z,2.87
2023-03-06T15:09:30.344Z,2.73
2023-03-06T15:12:33.989Z,2.55
2023-03-06T15:15:35.492Z,2.80
2023-03-06T15:18:38.904Z,2.85
2023-03-06T15:21:40.494Z,2.55
2023-03-06T15:24:42.028Z,2.67
2023-03-06T15:28:00.056Z,2.82
2023-03-06T15:31:10.724Z,2.62
2023-03-06T15:34:12.305Z,2.92
2023-03-06T15:37:27.607Z,2.79
2023-03-06T15:40:31.782Z,2.58
2023-03-06T15:43:39.479Z,2.56
2023-03-06T15:46:41.215Z,2.62
2023-03-06T15:49:42.738Z,2.53
2023-03-06T15:52:45.001Z,2.59
2023-03-06T15:55:46.846Z,2.56
2023-03-06T15:58:48.318Z,2.48
2023-03-06T16:01:50.231Z,2.72
2023-03-06T16:04:51.847Z,2.50
2023-03-06T16:07:53.586Z,2.57
2023-03-06T16:10:55.124Z,2.42
2023-03-06T16:13:57.383Z,2.54
2023-03-06T16:16:59.526Z,2.56
2023-03-06T16:20:01.112Z,2.49
2023-03-06T16:23:07.774Z,2.44
2023-03-06T16:26:18.254Z,2.34
2023-03-06T16:29:21.779Z,2.28
2023-03-06T16:32:27.663Z,2.42
2023-03-06T16:35:30.417Z,2.23
2023-03-06T16:38:31.967Z,2.29
2023-03-06T16:41:33.471Z,2.27
2023-03-06T16:44:34.977Z,2.17
2023-03-06T16:47:36.668Z,2.14
2023-03-06T16:50:39.118Z,2.22
2023-03-06T16:53:40.627Z,2.12
2023-03-06T16:56:42.311Z,2.04
2023-03-06T16:59:43.870Z,2.08
2023-03-06T17:02:47.413Z,2.09
2023-03-06T17:05:48.915Z,2.09
2023-03-06T17:08:50.509Z,1.92
2023-03-06T17:11:51.990Z,1.88
2023-03-06T17:14:53.508Z,2.03
2023-03-06T17:17:55.018Z,2.21
2023-03-06T17:20:56.951Z,2.26
2023-03-06T17:23:58.430Z,2.20
2023-03-06T17:27:00.145Z,2.26
2023-03-06T17:30:01.703Z,2.35
2023-03-06T17:33:03.290Z,2.25
2023-03-06T17:36:04.954Z,2.21
2023-03-06T17:39:06.443Z,2.05
2023-03-06T17:42:08.758Z,2.18
2023-03-06T17:45:11.518Z,2.09
2023-03-06T17:48:13.513Z,2.00
2023-03-06T17:51:15.059Z,1.96
2023-03-06T17:54:16.561Z,1.95
2023-03-06T17:57:18.096Z,1.89
2023-03-06T18:00:20.216Z,1.82
2023-03-06T18:03:21.747Z,1.85
2023-03-06T18:06:24.582Z,1.88
2023-03-06T18:09:26.481Z,1.75
2023-03-06T18:12:27.978Z,1.66
2023-03-06T18:15:29.518Z,1.71
2023-03-06T18:18:31.496Z,1.86
2023-03-06T18:21:33.224Z,1.80
2023-03-06T18:24:34.843Z,1.71
2023-03-06T18:27:36.361Z,1.75
2023-03-06T18:30:39.062Z,1.65
2023-03-06T18:33:40.393Z,1.63
2023-03-06T18:36:47.099Z,1.64
2023-03-06T18:39:48.670Z,1.61
2023-03-06T18:42:52.231Z,1.56
2023-03-06T18:45:57.111Z,1.48
2023-03-06T18:48:58.760Z,1.38
2023-03-06T18:52:00.249Z,1.33
2023-03-06T18:55:01.820Z,1.33
2023-03-06T18:58:03.345Z,1.36
2023-03-06T19:01:07.902Z,1.38
2023-03-06T19:04:09.728Z,1.39
2023-03-06T19:07:13.040Z,1.28
2023-03-06T19:10:14.618Z,1.25
2023-03-06T19:13:16.142Z,1.40
2023-03-06T19:16:18.894Z,1.36
2023-03-06T19:19:20.442Z,1.40
2023-03-06T19:22:23.017Z,1.27
2023-03-06T19:25:24.680Z,1.22
2023-03-06T19:28:26.343Z,1.20
2023-03-06T19:31:28.123Z,1.11
2023-03-06T19:34:29.724Z,1.09
2023-03-06T19:37:31.368Z,1.18
2023-03-06T19:40:32.888Z,1.13
2023-03-06T19:43:34.641Z,1.02
2023-03-06T19:46:36.270Z,1.04
2023-03-06T19:49:38.854Z,1.11
2023-03-06T19:52:40.350Z,1.10
2023-03-06T19:55:42.433Z,1.06
2023-03-06T19:58:43.939Z,1.14
2023-03-06T20:01:45.499Z,1.01
2023-03-06T20:04:47.050Z,1.01
2023-03-06T20:07:48.681Z,1.02
2023-03-06T20:10:50.194Z,0.96
2023-03-06T20:13:52.279Z,1.02
2023-03-06T20:16:53.776Z,1.08
2023-03-06T20:19:55.310Z,1.00
2023-03-06T20:22:56.767Z,0.95
2023-03-06T20:26:05.964Z,1.01
2023-03-06T20:29:07.596Z,1.05
2023-03-06T20:32:09.096Z,1.03
2023-03-06T20:35:10.668Z,1.00
2023-03-06T20:38:12.135Z,0.96
2023-03-06T20:41:21.789Z,0.94
2023-03-06T20:44:23.305Z,0.88
2023-03-06T20:47:24.771Z,0.93
2023-03-06T20:50:26.379Z,0.98
2023-03-06T20:53:28.000Z,0.89
2023-03-06T20:56:31.005Z,0.84
2023-03-06T20:59:32.557Z,0.85
2023-03-06T21:02:34.032Z,0.83
2023-03-06T21:05:35.532Z,0.69
2023-03-06T21:08:37.022Z,0.88
2023-03-06T21:11:38.505Z,0.72
2023-03-06T21:14:40.028Z,0.87
2023-03-06T21:17:41.594Z,0.83
2023-03-06T21:20:43.195Z,0.81
2023-03-06T21:23:45.500Z,0.79
2023-03-06T21:26:47.161Z,0.62
2023-03-06T21:29:48.654Z,0.74
2023-03-06T21:32:50.978Z,0.75
2023-03-06T21:35:52.854Z,0.77
2023-03-06T21:38:54.460Z,0.63
2023-03-06T21:41:55.979Z,0.46
2023-03-06T21:44:57.508Z,0.46
2023-03-06T21:47:59.344Z,0.42
2023-03-06T21:51:15.755Z,0.40
2023-03-06T21:54:17.310Z,0.65
2023-03-06T21:57:18.816Z,0.47
2023-03-06T22:00:20.537Z,0.68
2023-03-06T22:03:22.112Z,0.64
2023-03-06T22:06:25.371Z,0.66
2023-03-06T22:09:26.860Z,0.64
2023-03-06T22:12:28.329Z,0.66
2023-03-06T22:15:29.806Z,0.63
2023-03-06T22:18:31.307Z,0.66
2023-03-06T22:21:32.956Z,0.71
2023-03-06T22:24:34.428Z,0.65
2023-03-06T22:27:35.920Z,0.49
2023-03-06T22:30:37.491Z,0.29
2023-03-06T22:33:38.998Z,0.33
2023-03-06T22:36:40.471Z,0.27
2023-03-06T22:39:41.986Z,0.56
2023-03-06T22:42:43.471Z,0.60
2023-03-06T22:45:45.022Z,0.63
2023-03-06T22:48:46.495Z,0.60
2023-03-06T22:51:47.973Z,0.71
2023-03-06T22:54:49.726Z,0.73
2023-03-06T22:57:51.290Z,0.67
2023-03-06T23:00:53.326Z,0.70
2023-03-06T23:03:56.235Z,0.72
2023-03-06T23:06:57.760Z,0.60
2023-03-06T23:09:59.428Z,0.57
2023-03-06T23:13:00.920Z,0.52
2023-03-06T23:16:03.999Z,0.28
2023-03-06T23:19:05.598Z,0.29
2023-03-06T23:22:07.112Z,0.21
2023-03-06T23:25:10.894Z,0.32
2023-03-06T23:28:12.370Z,0.42
2023-03-06T23:31:15.748Z,0.51
2023-03-06T23:34:17.240Z,0.54
2023-03-06T23:37:18.713Z,0.44
2023-03-06T23:40:20.231Z,0.42
2023-03-06T23:43:21.700Z,0.50
2023-03-06T23:46:23.308Z,0.50
2023-03-06T23:49:24.857Z,0.57
2023-03-06T23:52:26.681Z,0.58
2023-03-06T23:55:28.205Z,0.57
2023-03-06T23:58:29.681Z,0.58
